Time;durP1;ratioP1;P1;durP2;ratioP2;P2;SDS_P1;SDS_P2;PMS_P1;PMS_P2;Temp;Humidity;BMP_temperature;BMP_pressure;BME280_temperature;BME280_humidity;BME280_pressure;Samples;Min_cycle;Max_cycle;Signal;HPM_P1;HPM_P2
2022/03/12 00:02:07;;;;;;;3.50;3.20;;;7.50;34.50;;;;;;938348;149;27435;-78
2022/03/12 00:04:33;;;;;;;3.77;3.20;;;7.50;34.40;;;;;;938677;148;27462;-78
2022/03/12 00:07:00;;;;;;;3.40;3.10;;;7.50;34.40;;;;;;927058;149;27410;-77
2022/03/12 00:09:27;;;;;;;4.90;3.20;;;7.50;34.50;;;;;;921147;152;27533;-77
2022/03/12 00:12:00;;;;;;;3.97;3.30;;;7.50;34.50;;;;;;919733;153;27395;-78
2022/03/12 00:14:21;;;;;;;4.43;3.40;;;7.50;34.60;;;;;;922455;154;27327;-78
2022/03/12 00:16:47;;;;;;;3.97;3.53;;;7.50;34.50;;;;;;922711;154;27423;-78
2022/03/12 00:19:13;;;;;;;4.57;3.20;;;7.50;34.50;;;;;;921880;150;27316;-78
2022/03/12 00:21:41;;;;;;;4.07;3.20;;;7.50;34.50;;;;;;914908;154;27359;-78
2022/03/12 00:24:07;;;;;;;4.13;3.47;;;7.50;34.50;;;;;;923849;153;27451;-78
2022/03/12 00:26:33;;;;;;;3.87;3.30;;;7.50;34.50;;;;;;915070;153;27458;-78
2022/03/12 00:28:59;;;;;;;3.50;3.20;;;7.50;34.50;;;;;;930246;149;27294;-77
2022/03/12 00:31:26;;;;;;;4.20;3.50;;;7.50;34.60;;;;;;930152;150;27303;-77
2022/03/12 00:33:53;;;;;;;4.23;3.17;;;7.40;34.50;;;;;;929268;149;27350;-78
2022/03/12 00:36:19;;;;;;;3.13;2.83;;;7.40;34.60;;;;;;928897;149;27350;-78
2022/03/12 00:38:46;;;;;;;5.67;2.97;;;7.40;34.60;;;;;;932133;150;27247;-78
2022/03/12 00:41:12;;;;;;;4.30;3.10;;;7.40;34.60;;;;;;931154;150;27774;-78
2022/03/12 00:43:39;;;;;;;4.10;3.17;;;7.30;34.60;;;;;;930630;153;27352;-78
2022/03/12 00:46:05;;;;;;;4.50;3.60;;;7.30;34.60;;;;;;929716;151;27422;-78
2022/03/12 00:48:32;;;;;;;4.90;3.17;;;7.20;34.70;;;;;;931667;153;27450;-78
2022/03/12 00:50:59;;;;;;;3.67;3.30;;;7.10;34.70;;;;;;932950;149;27431;-78
2022/03/12 00:53:25;;;;;;;3.47;3.17;;;7.10;34.70;;;;;;931055;153;27378;-77
2022/03/12 00:55:52;;;;;;;2.73;2.47;;;7.00;34.80;;;;;;930395;153;27369;-78
2022/03/12 00:58:18;;;;;;;4.00;3.33;;;7.00;34.90;;;;;;931848;150;27767;-78
2022/03/12 01:00:45;;;;;;;4.63;3.20;;;7.00;34.40;;;;;;931835;149;27537;-78
2022/03/12 01:03:11;;;;;;;3.97;3.33;;;7.00;35.00;;;;;;930752;149;27452;-78
2022/03/12 01:05:50;;;;;;;3.60;3.20;;;6.90;35.00;;;;;;930901;153;27260;-78
2022/03/12 01:08:17;;;;;;;4.63;3.33;;;6.90;35.10;;;;;;938690;148;27312;-78
2022/03/12 01:10:43;;;;;;;3.97;3.40;;;6.90;35.10;;;;;;938687;148;27950;-78
2022/03/12 01:13:10;;;;;;;5.20;3.47;;;6.80;35.20;;;;;;939039;148;27397;-78
2022/03/12 01:15:36;;;;;;;3.83;3.17;;;6.80;35.20;;;;;;938552;148;27387;-78
2022/03/12 01:18:03;;;;;;;7.50;3.20;;;6.80;35.30;;;;;;939493;148;27302;-78
2022/03/12 01:20:29;;;;;;;3.63;3.33;;;6.70;35.20;;;;;;938729;148;27444;-78
2022/03/12 01:22:56;;;;;;;5.23;2.80;;;6.80;35.40;;;;;;936582;148;27435;-78
2022/03/12 01:25:22;;;;;;;4.53;3.37;;;6.70;35.30;;;;;;938406;148;27445;-78
2022/03/12 01:27:49;;;;;;;3.40;3.10;;;6.70;35.30;;;;;;939098;148;27766;-78
2022/03/12 01:30:16;;;;;;;4.40;3.63;;;6.80;35.40;;;;;;938064;148;27326;-78
2022/03/12 01:32:42;;;;;;;3.53;3.23;;;6.80;35.40;;;;;;937101;148;27286;-78
2022/03/12 01:35:09;;;;;;;3.20;2.90;;;6.80;35.40;;;;;;938495;148;27361;-78
2022/03/12 01:37:35;;;;;;;4.10;3.53;;;6.80;35.40;;;;;;936840;148;27482;-78
2022/03/12 01:40:02;;;;;;;4.17;3.50;;;6.90;35.50;;;;;;933523;150;27325;-78
2022/03/12 01:42:28;;;;;;;3.47;3.17;;;6.90;35.50;;;;;;936475;149;27318;-78
2022/03/12 01:44:55;;;;;;;4.00;3.10;;;6.90;35.50;;;;;;936719;149;27364;-78
2022/03/12 01:47:22;;;;;;;6.97;3.70;;;6.90;35.50;;;;;;936674;149;27330;-78
2022/03/12 01:49:48;;;;;;;3.20;2.90;;;6.90;35.50;;;;;;935975;149;27346;-78
2022/03/12 01:52:15;;;;;;;5.03;3.93;;;6.90;35.40;;;;;;935102;149;27294;-78
2022/03/12 01:54:41;;;;;;;3.77;3.20;;;6.90;35.50;;;;;;937434;149;27405;-78
2022/03/12 01:57:11;;;;;;;3.20;2.90;;;6.90;35.40;;;;;;935494;149;27672;-78
2022/03/12 01:59:37;;;;;;;3.53;2.97;;;7.00;35.40;;;;;;929706;150;27414;-78
2022/03/12 02:02:06;;;;;;;4.00;3.17;;;7.00;35.50;;;;;;948040;147;27288;-78
2022/03/12 02:04:30;;;;;;;3.10;2.90;;;7.00;35.40;;;;;;936788;148;27250;-78
2022/03/12 02:06:59;;;;;;;3.27;3.00;;;7.00;35.40;;;;;;926729;150;27462;-78
2022/03/12 02:09:26;;;;;;;3.80;3.40;;;7.00;35.40;;;;;;937942;148;27491;-78
2022/03/12 02:11:54;;;;;;;3.73;2.90;;;7.00;35.30;;;;;;938899;148;27921;-77
2022/03/12 02:14:22;;;;;;;3.77;3.23;;;7.10;35.30;;;;;;938087;148;27379;-78
2022/03/12 02:16:49;;;;;;;4.80;3.27;;;7.10;35.30;;;;;;941413;148;27298;-78
2022/03/12 02:19:15;;;;;;;3.50;3.20;;;7.10;35.30;;;;;;938848;148;27435;-78
2022/03/12 02:21:42;;;;;;;3.37;3.07;;;7.10;35.30;;;;;;936366;148;27349;-78
2022/03/12 02:24:11;;;;;;;3.57;3.27;;;7.10;35.30;;;;;;938151;148;28094;-78
2022/03/12 02:26:41;;;;;;;5.20;3.50;;;7.20;35.30;;;;;;937391;148;27423;-78
2022/03/12 02:29:12;;;;;;;4.03;3.53;;;7.20;35.70;;;;;;939437;148;27282;-78
2022/03/12 02:31:31;;;;;;;3.87;3.47;;;7.20;35.30;;;;;;936358;148;27348;-78
2022/03/12 02:34:01;;;;;;;4.07;3.67;;;7.20;35.30;;;;;;938980;148;27439;-78
2022/03/12 02:36:26;;;;;;;4.10;3.33;;;7.20;35.30;;;;;;937521;148;27437;-77
2022/03/12 02:38:51;;;;;;;4.00;3.13;;;7.20;35.30;;;;;;937277;148;27794;-78
2022/03/12 02:41:17;;;;;;;5.23;3.47;;;7.20;35.30;;;;;;933393;150;27278;-78
2022/03/12 02:43:45;;;;;;;4.23;3.37;;;7.20;35.30;;;;;;922132;150;27376;-78
2022/03/12 02:46:11;;;;;;;3.63;3.27;;;7.20;35.30;;;;;;938492;148;27453;-78
2022/03/12 02:48:38;;;;;;;4.97;3.57;;;7.20;35.30;;;;;;937569;148;27276;-78
2022/03/12 02:51:05;;;;;;;3.77;3.23;;;7.20;35.30;;;;;;937921;148;27896;-78
2022/03/12 02:53:30;;;;;;;3.80;3.37;;;7.20;35.30;;;;;;934346;150;27373;-78
2022/03/12 02:55:57;;;;;;;4.80;3.03;;;7.20;35.30;;;;;;934037;149;27430;-78
2022/03/12 02:58:23;;;;;;;5.17;3.47;;;7.20;35.30;;;;;;938113;149;27392;-78
2022/03/12 03:00:50;;;;;;;7.27;3.30;;;7.20;35.30;;;;;;936451;149;27447;-78
2022/03/12 03:03:17;;;;;;;3.00;2.73;;;7.10;35.30;;;;;;919744;150;27438;-78
2022/03/12 03:05:55;;;;;;;3.47;3.03;;;7.10;35.40;;;;;;936766;148;27283;-78
2022/03/12 03:08:11;;;;;;;3.13;2.83;;;7.10;35.30;;;;;;941003;147;27442;-78
2022/03/12 03:10:36;;;;;;;3.23;2.93;;;7.10;35.40;;;;;;943601;147;28164;-78
2022/03/12 03:13:18;;;;;;;4.10;3.03;;;7.10;35.40;;;;;;938574;147;27394;-78
2022/03/12 03:15:54;;;;;;;4.10;3.20;;;7.10;35.40;;;;;;937704;148;27614;-78
2022/03/12 03:18:21;;;;;;;3.97;3.33;;;7.10;35.50;;;;;;938349;148;27774;-78
2022/03/12 03:20:47;;;;;;;3.97;2.67;;;7.10;35.40;;;;;;937834;148;27353;-78
2022/03/12 03:23:13;;;;;;;3.90;3.60;;;7.10;35.50;;;;;;937209;148;27361;-79
2022/03/12 03:25:40;;;;;;;3.90;3.50;;;7.10;35.50;;;;;;936269;148;27345;-78
2022/03/12 03:28:06;;;;;;;3.47;3.00;;;7.10;35.50;;;;;;938070;148;27354;-78
2022/03/12 03:30:34;;;;;;;3.43;3.10;;;7.10;35.50;;;;;;938808;148;27820;-78
2022/03/12 03:32:59;;;;;;;3.43;2.87;;;7.10;35.50;;;;;;938683;148;27353;-78
2022/03/12 03:35:26;;;;;;;3.60;3.30;;;7.10;35.50;;;;;;937274;148;27343;-78
2022/03/12 03:37:53;;;;;;;3.90;3.17;;;7.10;35.50;;;;;;937786;148;27313;-78
2022/03/12 03:40:19;;;;;;;4.43;3.20;;;7.10;35.50;;;;;;936870;149;27384;-78
2022/03/12 03:42:46;;;;;;;4.80;3.00;;;7.10;35.50;;;;;;937026;149;27785;-78
2022/03/12 03:45:12;;;;;;;3.20;2.90;;;7.10;35.50;;;;;;936316;149;27315;-78
2022/03/12 03:47:39;;;;;;;3.70;3.23;;;7.20;35.60;;;;;;934761;149;27916;-78
2022/03/12 03:50:08;;;;;;;3.63;3.20;;;7.20;35.60;;;;;;936273;149;27341;-78
2022/03/12 03:52:33;;;;;;;3.37;2.90;;;7.20;35.60;;;;;;936319;149;27454;-78
2022/03/12 03:55:00;;;;;;;3.50;3.00;;;7.20;35.60;;;;;;935623;149;27389;-78
2022/03/12 03:57:27;;;;;;;5.07;3.07;;;7.20;35.60;;;;;;936566;149;27379;-78
2022/03/12 03:59:54;;;;;;;3.33;3.03;;;7.20;35.60;;;;;;938442;149;27302;-78
2022/03/12 04:02:20;;;;;;;5.17;3.17;;;7.20;35.50;;;;;;934870;149;27355;-78
2022/03/12 04:04:48;;;;;;;4.10;3.00;;;7.20;35.60;;;;;;935090;149;27377;-78
2022/03/12 04:07:14;;;;;;;3.23;2.93;;;7.20;35.60;;;;;;934848;149;27345;-78
2022/03/12 04:09:40;;;;;;;6.00;2.93;;;7.20;35.60;;;;;;934059;149;27818;-77
2022/03/12 04:12:06;;;;;;;3.40;2.80;;;7.20;35.60;;;;;;910235;153;27353;-78
2022/03/12 04:14:33;;;;;;;3.33;3.03;;;7.20;35.50;;;;;;909796;154;27321;-78
2022/03/12 04:17:00;;;;;;;4.80;3.50;;;7.20;35.50;;;;;;905361;154;27456;-78
2022/03/12 04:19:30;;;;;;;3.63;3.33;;;7.20;35.50;;;;;;891536;156;27484;-78
2022/03/12 04:21:58;;;;;;;3.60;3.23;;;7.20;35.50;;;;;;905987;154;27883;-78
2022/03/12 04:24:25;;;;;;;3.93;3.63;;;7.20;35.50;;;;;;906964;154;27402;-78
2022/03/12 04:26:51;;;;;;;3.80;3.07;;;7.20;35.40;;;;;;905584;154;27488;-78
2022/03/12 04:29:18;;;;;;;3.23;2.93;;;7.20;35.40;;;;;;907131;154;28078;-78
2022/03/12 04:31:47;;;;;;;3.40;3.10;;;7.20;35.50;;;;;;908013;154;27318;-78
2022/03/12 04:34:11;;;;;;;4.63;3.37;;;7.20;35.40;;;;;;904042;154;28054;-78
2022/03/12 04:36:38;;;;;;;3.50;3.20;;;7.20;35.40;;;;;;906388;154;27318;-78
2022/03/12 04:39:04;;;;;;;4.40;3.30;;;7.10;35.30;;;;;;905990;154;27498;-78
2022/03/12 04:41:35;;;;;;;3.47;3.13;;;7.10;35.30;;;;;;905965;154;28490;-78
2022/03/12 04:43:57;;;;;;;3.57;2.90;;;7.10;35.30;;;;;;907223;154;27396;-78
2022/03/12 04:46:24;;;;;;;3.53;3.23;;;7.00;35.30;;;;;;906893;154;27352;-78
2022/03/12 04:48:50;;;;;;;3.43;3.13;;;7.00;35.30;;;;;;906860;154;27376;-78
2022/03/12 04:51:17;;;;;;;3.40;3.10;;;6.90;35.30;;;;;;905081;154;27416;-78
2022/03/12 04:53:43;;;;;;;4.00;3.40;;;6.90;35.30;;;;;;906223;154;27438;-78
2022/03/12 04:56:10;;;;;;;3.50;3.20;;;6.80;35.30;;;;;;906604;154;27310;-78
2022/03/12 04:58:37;;;;;;;3.07;2.77;;;6.80;35.30;;;;;;906170;154;27987;-78
2022/03/12 05:01:05;;;;;;;3.23;2.53;;;6.70;35.40;;;;;;906323;154;27851;-78
2022/03/12 05:03:30;;;;;;;3.40;3.10;;;6.70;35.40;;;;;;905019;153;27497;-78
2022/03/12 05:06:00;;;;;;;5.13;3.23;;;6.60;35.40;;;;;;906819;154;27425;-78
2022/03/12 05:08:23;;;;;;;6.87;3.07;;;6.60;35.50;;;;;;905153;154;27445;-78
2022/03/12 05:10:50;;;;;;;3.07;2.63;;;6.50;35.50;;;;;;924367;149;27395;-78
2022/03/12 05:13:16;;;;;;;3.90;3.20;;;6.50;35.70;;;;;;923415;149;27420;-78
2022/03/12 05:15:43;;;;;;;3.60;3.03;;;6.40;35.60;;;;;;928920;148;27380;-78
2022/03/12 05:18:11;;;;;;;3.30;2.93;;;6.40;35.70;;;;;;932236;148;27370;-78
2022/03/12 05:20:36;;;;;;;3.30;3.00;;;6.30;35.70;;;;;;930169;148;27367;-78
2022/03/12 05:23:03;;;;;;;3.40;3.10;;;6.30;35.80;;;;;;931494;148;27317;-78
2022/03/12 05:25:31;;;;;;;3.10;2.67;;;6.30;35.80;;;;;;923075;150;27425;-78
2022/03/12 05:27:56;;;;;;;3.03;2.73;;;6.20;35.80;;;;;;916272;150;27909;-78
2022/03/12 05:30:22;;;;;;;3.50;2.90;;;6.20;35.80;;;;;;931266;148;27386;-78
2022/03/12 05:32:49;;;;;;;3.70;2.97;;;6.20;35.90;;;;;;932906;148;27366;-78
2022/03/12 05:35:19;;;;;;;4.10;3.03;;;6.20;35.90;;;;;;931088;148;27426;-78
2022/03/12 05:37:45;;;;;;;4.60;3.37;;;6.20;36.00;;;;;;929659;148;27386;-78
2022/03/12 05:40:11;;;;;;;3.30;3.00;;;6.20;36.00;;;;;;914829;151;27300;-78
2022/03/12 05:42:38;;;;;;;2.87;2.57;;;6.10;35.90;;;;;;915627;151;27965;-78
2022/03/12 05:45:09;;;;;;;4.43;3.00;;;6.10;36.00;;;;;;914138;151;27466;-77
2022/03/12 05:47:34;;;;;;;3.67;2.90;;;6.10;36.10;;;;;;913983;151;27402;-78
2022/03/12 05:49:58;;;;;;;3.13;2.70;;;6.10;36.00;;;;;;913036;151;27280;-78
2022/03/12 05:52:24;;;;;;;3.20;2.90;;;6.10;36.10;;;;;;912561;151;27306;-78
2022/03/12 05:54:51;;;;;;;4.53;3.00;;;6.00;36.10;;;;;;913506;151;27359;-78
2022/03/12 05:57:17;;;;;;;3.20;2.90;;;6.00;36.10;;;;;;914007;151;27453;-78
2022/03/12 05:59:45;;;;;;;3.47;2.90;;;6.00;36.10;;;;;;918200;150;27465;-78
2022/03/12 06:02:11;;;;;;;4.47;3.10;;;6.00;36.10;;;;;;910774;152;27354;-78
2022/03/12 06:04:38;;;;;;;3.20;2.87;;;6.00;36.10;;;;;;929965;148;27404;-78
2022/03/12 06:07:04;;;;;;;4.33;3.00;;;6.00;36.10;;;;;;930345;148;27852;-78
2022/03/12 06:09:30;;;;;;;4.93;3.03;;;6.00;36.10;;;;;;932200;147;27399;-78
2022/03/12 06:11:58;;;;;;;3.07;2.77;;;6.00;36.10;;;;;;937543;148;28599;-78
2022/03/12 06:14:24;;;;;;;3.97;2.97;;;6.00;36.10;;;;;;935677;148;27429;-78
2022/03/12 06:16:50;;;;;;;3.53;2.93;;;6.00;36.20;;;;;;932410;150;27291;-78
2022/03/12 06:19:17;;;;;;;4.47;3.30;;;6.00;36.20;;;;;;931195;150;27378;-78
2022/03/12 06:21:43;;;;;;;3.90;2.83;;;6.00;36.90;;;;;;932844;150;27819;-78
2022/03/12 06:24:10;;;;;;;3.20;2.87;;;6.00;36.20;;;;;;933085;150;27298;-78
2022/03/12 06:26:39;;;;;;;3.00;2.73;;;6.00;36.30;;;;;;932453;150;27334;-78
2022/03/12 06:29:03;;;;;;;4.47;2.93;;;6.00;36.30;;;;;;930476;150;27339;-78
2022/03/12 06:31:31;;;;;;;4.60;3.87;;;6.00;36.30;;;;;;921973;150;27361;-78
2022/03/12 06:33:56;;;;;;;5.33;2.90;;;6.00;36.40;;;;;;939106;148;27345;-78
2022/03/12 06:36:23;;;;;;;3.13;2.83;;;6.10;36.50;;;;;;939130;148;29235;-78
2022/03/12 06:38:49;;;;;;;3.37;3.07;;;6.20;36.70;;;;;;938214;148;27260;-77
2022/03/12 06:41:18;;;;;;;3.40;3.10;;;6.30;36.80;;;;;;938930;148;27356;-78
2022/03/12 06:43:43;;;;;;;4.40;3.30;;;6.50;36.90;;;;;;935428;148;27430;-78
2022/03/12 06:46:13;;;;;;;3.57;3.27;;;6.70;37.00;;;;;;936364;148;27375;-78
2022/03/12 06:48:36;;;;;;;4.07;3.10;;;7.00;37.00;;;;;;939610;148;27364;-78
2022/03/12 06:51:02;;;;;;;3.60;3.30;;;7.20;36.80;;;;;;936921;148;27306;-77
2022/03/12 06:53:30;;;;;;;3.60;3.30;;;7.40;36.60;;;;;;938533;148;28031;-78
2022/03/12 06:55:57;;;;;;;6.40;3.70;;;7.50;36.50;;;;;;938623;148;27337;-78
2022/03/12 06:58:24;;;;;;;3.37;3.03;;;7.80;36.50;;;;;;939070;148;27863;-78
2022/03/12 07:00:49;;;;;;;3.30;3.00;;;8.00;36.50;;;;;;938462;148;27320;-78
2022/03/12 07:03:15;;;;;;;3.50;3.20;;;8.20;36.60;;;;;;938126;148;27351;-78
2022/03/12 07:05:42;;;;;;;3.47;3.17;;;8.50;36.70;;;;;;938720;148;27748;-78
2022/03/12 07:08:08;;;;;;;4.17;3.60;;;8.90;36.80;;;;;;938945;148;27398;-79
2022/03/12 07:10:35;;;;;;;3.23;2.93;;;9.40;36.90;;;;;;935201;148;27695;-78
2022/03/12 07:13:02;;;;;;;4.17;3.57;;;9.90;36.80;;;;;;932882;148;27402;-77
2022/03/12 07:15:29;;;;;;;3.70;3.37;;;10.40;36.70;;;;;;932749;148;27263;-78
2022/03/12 07:17:55;;;;;;;3.90;3.50;;;10.90;36.40;;;;;;931419;148;27247;-78
2022/03/12 07:20:21;;;;;;;3.60;3.30;;;11.40;36.10;;;;;;931768;148;27375;-78
2022/03/12 07:22:48;;;;;;;3.37;3.07;;;11.90;35.70;;;;;;936933;148;27448;-78
2022/03/12 07:25:15;;;;;;;3.73;3.23;;;12.40;35.30;;;;;;930135;148;27394;-78
2022/03/12 07:27:41;;;;;;;4.40;3.50;;;12.80;34.90;;;;;;930823;148;27733;-78
2022/03/12 07:30:08;;;;;;;4.00;3.07;;;13.20;34.20;;;;;;910351;152;28180;-78
2022/03/12 07:32:35;;;;;;;4.63;3.60;;;13.60;34.10;;;;;;931872;148;27490;-78
2022/03/12 07:35:01;;;;;;;3.87;3.47;;;13.90;33.40;;;;;;933673;148;27326;-78
2022/03/12 07:37:27;;;;;;;4.10;3.23;;;14.30;33.10;;;;;;930442;148;27328;-78
2022/03/12 07:39:55;;;;;;;4.47;3.47;;;14.50;32.90;;;;;;931654;148;27366;-78
2022/03/12 07:42:21;;;;;;;4.10;3.20;;;14.70;32.40;;;;;;934400;148;27312;-78
2022/03/12 07:44:47;;;;;;;3.87;3.57;;;14.90;32.10;;;;;;932494;148;27357;-78
2022/03/12 07:47:14;;;;;;;4.00;3.37;;;15.10;31.60;;;;;;939663;148;27378;-78
2022/03/12 07:49:41;;;;;;;4.20;3.13;;;15.20;31.60;;;;;;925003;149;27405;-78
2022/03/12 07:52:07;;;;;;;4.83;3.73;;;15.40;31.60;;;;;;929813;150;27308;-79
2022/03/12 07:54:34;;;;;;;3.40;2.97;;;15.50;31.50;;;;;;928793;149;27310;-78
2022/03/12 07:57:01;;;;;;;4.10;2.97;;;15.80;31.30;;;;;;933282;150;27326;-78
2022/03/12 07:59:27;;;;;;;3.35;3.08;;;16.00;31.10;;;;;;931893;150;27369;-79
2022/03/12 08:01:54;;;;;;;3.55;3.25;;;16.20;30.90;;;;;;933570;150;28485;-79
2022/03/12 08:04:20;;;;;;;4.60;3.70;;;16.30;30.90;;;;;;933964;150;27307;-78
2022/03/12 08:06:48;;;;;;;3.60;3.30;;;16.50;30.40;;;;;;933866;150;27427;-78
2022/03/12 08:09:13;;;;;;;3.25;2.95;;;16.70;30.00;;;;;;930358;149;27500;-79
2022/03/12 08:11:40;;;;;;;4.53;3.05;;;16.80;30.10;;;;;;921986;150;27411;-79
2022/03/12 08:14:09;;;;;;;4.08;3.08;;;17.00;30.10;;;;;;937646;148;27379;-79
2022/03/12 08:16:33;;;;;;;4.17;3.47;;;17.20;30.00;;;;;;932801;148;27326;-79
2022/03/12 08:19:05;;;;;;;3.55;3.25;;;17.40;29.90;;;;;;932398;148;27443;-81
2022/03/12 08:21:32;;;;;;;4.03;3.30;;;17.60;29.70;;;;;;931706;148;27430;-79
2022/03/12 08:23:59;;;;;;;3.83;3.50;;;17.70;29.70;;;;;;931097;148;27365;-79
2022/03/12 08:26:25;;;;;;;4.05;3.65;;;17.90;29.50;;;;;;932508;148;27329;-79
2022/03/12 08:28:52;;;;;;;3.80;3.42;;;18.00;29.50;;;;;;930282;148;27437;-79
2022/03/12 08:31:18;;;;;;;3.92;3.55;;;18.10;29.40;;;;;;932799;148;27266;-79
2022/03/12 08:33:45;;;;;;;4.00;3.70;;;18.30;29.50;;;;;;934054;148;27341;-79
2022/03/12 08:36:13;;;;;;;4.92;3.27;;;18.50;29.10;;;;;;929875;148;27457;-79
2022/03/12 08:38:38;;;;;;;3.75;3.45;;;18.60;28.90;;;;;;931356;148;27342;-79
2022/03/12 08:41:05;;;;;;;4.75;3.67;;;18.70;28.70;;;;;;933487;148;27371;-79
2022/03/12 08:43:32;;;;;;;4.78;4.30;;;18.80;28.50;;;;;;914846;151;27402;-79
2022/03/12 08:45:58;;;;;;;4.08;3.67;;;19.00;28.50;;;;;;913860;151;27492;-79
2022/03/12 08:48:24;;;;;;;3.42;3.08;;;19.00;28.30;;;;;;912257;151;27727;-79
2022/03/12 08:50:51;;;;;;;4.00;3.60;;;19.10;28.40;;;;;;915147;151;27347;-79
2022/03/12 08:53:18;;;;;;;5.45;3.45;;;19.20;28.10;;;;;;913039;151;27347;-79
2022/03/12 08:55:44;;;;;;;5.15;3.30;;;19.30;28.30;;;;;;915509;151;27288;-79
2022/03/12 08:58:11;;;;;;;4.30;3.33;;;19.40;28.30;;;;;;913895;151;27304;-79
2022/03/12 09:00:37;;;;;;;3.52;3.22;;;19.50;28.20;;;;;;931241;148;27361;-79
2022/03/12 09:03:04;;;;;;;3.75;3.45;;;19.60;28.40;;;;;;930624;148;27452;-79
2022/03/12 09:05:31;;;;;;;4.08;3.42;;;19.80;28.20;;;;;;931189;148;27317;-79
2022/03/12 09:07:57;;;;;;;4.03;3.45;;;19.90;28.10;;;;;;932023;148;27312;-79
2022/03/12 09:10:24;;;;;;;4.67;3.58;;;20.00;28.40;;;;;;931105;148;27307;-79
2022/03/12 09:12:50;;;;;;;3.80;3.40;;;20.10;27.80;;;;;;941852;146;27900;-79
2022/03/12 09:15:20;;;;;;;3.60;3.30;;;20.20;27.80;;;;;;947326;146;27391;-79
2022/03/12 09:17:44;;;;;;;3.25;3.05;;;20.30;27.80;;;;;;947863;146;27374;-79
2022/03/12 09:20:10;;;;;;;3.95;3.55;;;20.40;27.90;;;;;;947988;146;27394;-79
2022/03/12 09:22:37;;;;;;;4.00;3.20;;;20.50;27.70;;;;;;946374;146;27395;-79
2022/03/12 09:25:07;;;;;;;4.10;3.70;;;20.60;27.60;;;;;;946130;146;27824;-79
2022/03/12 09:27:30;;;;;;;5.60;3.60;;;20.60;27.50;;;;;;944575;146;27361;-79
2022/03/12 09:29:57;;;;;;;4.03;3.72;;;20.70;27.40;;;;;;948658;146;27326;-79
2022/03/12 09:32:23;;;;;;;4.12;3.70;;;20.80;27.10;;;;;;947055;146;27341;-79
2022/03/12 09:34:50;;;;;;;3.70;3.37;;;20.70;27.00;;;;;;948819;146;27272;-79
2022/03/12 09:37:16;;;;;;;4.30;3.75;;;20.70;26.90;;;;;;946722;146;27344;-79
2022/03/12 09:39:43;;;;;;;4.40;3.80;;;20.60;27.00;;;;;;946567;146;27806;-79
2022/03/12 09:42:10;;;;;;;3.52;3.22;;;20.50;27.20;;;;;;941271;146;27318;-79
2022/03/12 09:44:36;;;;;;;4.00;3.58;;;20.40;27.30;;;;;;939977;149;27351;-79
2022/03/12 09:47:03;;;;;;;3.90;3.60;;;20.50;27.30;;;;;;941664;150;27385;-79
2022/03/12 09:49:31;;;;;;;4.47;4.08;;;20.50;27.10;;;;;;941202;149;27322;-79
2022/03/12 09:51:57;;;;;;;3.87;3.58;;;20.50;26.80;;;;;;939443;151;27429;-79
2022/03/12 09:54:23;;;;;;;3.72;3.42;;;20.30;26.70;;;;;;940448;151;27237;-79
2022/03/12 09:56:49;;;;;;;4.33;3.80;;;20.20;26.80;;;;;;939999;148;27770;-79
2022/03/12 09:59:16;;;;;;;3.65;3.33;;;20.10;26.30;;;;;;937972;149;27312;-80
2022/03/12 10:01:42;;;;;;;4.30;3.90;;;19.80;26.50;;;;;;941980;151;27346;-80
2022/03/12 10:04:09;;;;;;;4.30;3.75;;;19.50;26.70;;;;;;940652;149;27327;-79
2022/03/12 10:06:36;;;;;;;3.85;3.47;;;19.20;26.70;;;;;;940505;151;27359;-80
2022/03/12 10:09:04;;;;;;;4.92;4.28;;;18.80;26.80;;;;;;941301;149;27325;-79
2022/03/12 10:11:29;;;;;;;4.35;3.80;;;18.50;26.80;;;;;;941073;150;27938;-80
2022/03/12 10:13:55;;;;;;;5.33;4.75;;;18.30;27.10;;;;;;940367;149;27376;-79
2022/03/12 10:16:22;;;;;;;6.60;5.05;;;18.00;27.10;;;;;;939957;149;27440;-79
2022/03/12 10:18:49;;;;;;;5.28;4.17;;;17.70;27.30;;;;;;941442;151;27358;-79
2022/03/12 10:21:16;;;;;;;4.60;4.15;;;17.60;27.50;;;;;;939595;149;27624;-79
2022/03/12 10:23:42;;;;;;;6.25;4.05;;;17.40;27.60;;;;;;939068;151;27354;-79
2022/03/12 10:26:08;;;;;;;4.60;4.20;;;17.30;27.60;;;;;;939885;149;27814;-80
2022/03/12 10:28:36;;;;;;;3.80;3.50;;;17.10;27.70;;;;;;945229;150;27455;-79
2022/03/12 10:31:05;;;;;;;4.45;4.00;;;17.00;27.80;;;;;;946595;146;27666;-79
2022/03/12 10:33:28;;;;;;;7.35;3.90;;;16.80;27.70;;;;;;946998;146;28520;-79
2022/03/12 10:35:55;;;;;;;4.27;3.87;;;16.70;27.90;;;;;;945350;146;27303;-79
2022/03/12 10:38:25;;;;;;;4.73;4.23;;;16.50;27.90;;;;;;949541;146;27281;-79
2022/03/12 10:40:48;;;;;;;4.50;4.10;;;16.40;28.00;;;;;;947332;146;27326;-79
2022/03/12 10:43:15;;;;;;;5.40;4.90;;;16.20;28.20;;;;;;947015;146;27357;-79
2022/03/12 10:45:45;;;;;;;4.90;4.40;;;16.10;28.30;;;;;;947331;146;28090;-79
2022/03/12 10:48:12;;;;;;;5.00;4.57;;;16.00;28.40;;;;;;947875;146;27450;-79
2022/03/12 10:50:39;;;;;;;7.37;3.93;;;15.80;28.40;;;;;;948900;146;27982;-79
2022/03/12 10:53:06;;;;;;;4.43;4.03;;;15.70;28.60;;;;;;946787;146;27363;-79
2022/03/12 10:55:33;;;;;;;5.43;4.20;;;15.60;28.70;;;;;;946484;146;27328;-79
2022/03/12 10:58:04;;;;;;;4.90;4.40;;;15.50;28.80;;;;;;946354;146;27327;-79
2022/03/12 11:00:32;;;;;;;4.50;4.10;;;15.40;28.90;;;;;;943454;146;27433;-80
2022/03/12 11:03:00;;;;;;;5.97;4.00;;;15.30;29.00;;;;;;933797;149;27338;-79
2022/03/12 11:05:35;;;;;;;4.43;4.03;;;15.30;29.10;;;;;;930648;149;27380;-80
2022/03/12 11:08:16;;;;;;;4.80;4.33;;;15.30;29.10;;;;;;949109;146;27351;-79
2022/03/12 11:10:44;;;;;;;6.07;5.47;;;15.20;29.20;;;;;;946120;146;27367;-79
2022/03/12 11:13:12;;;;;;;5.20;4.70;;;15.20;29.30;;;;;;943798;146;27387;-79
2022/03/12 11:15:39;;;;;;;5.90;4.20;;;15.10;29.40;;;;;;935628;149;27399;-80
2022/03/12 11:18:06;;;;;;;4.60;4.07;;;15.10;29.60;;;;;;934888;152;27335;-80
2022/03/12 11:20:33;;;;;;;5.73;4.63;;;15.10;29.60;;;;;;933810;149;27481;-80
2022/03/12 11:23:12;;;;;;;7.53;4.20;;;15.10;29.70;;;;;;936588;152;27366;-80
2022/03/12 11:25:38;;;;;;;4.30;3.90;;;15.20;29.30;;;;;;928750;151;27679;-80
2022/03/12 11:28:14;;;;;;;4.87;4.40;;;15.20;29.70;;;;;;934248;152;27308;-80
2022/03/12 11:30:40;;;;;;;5.03;4.50;;;15.20;29.80;;;;;;934959;150;27359;-79
2022/03/12 11:33:06;;;;;;;5.67;4.93;;;15.20;29.80;;;;;;935485;151;27446;-79
2022/03/12 11:35:40;;;;;;;5.70;5.10;;;15.20;29.80;;;;;;935642;151;27453;-80
2022/03/12 11:38:18;;;;;;;5.50;4.93;;;15.20;29.90;;;;;;922523;151;27824;-80
2022/03/12 11:40:45;;;;;;;6.27;4.73;;;15.20;29.90;;;;;;935640;149;27425;-80
2022/03/12 11:43:21;;;;;;;6.93;5.00;;;15.20;29.90;;;;;;936788;152;27414;-80
2022/03/12 11:45:47;;;;;;;6.47;5.17;;;15.20;30.00;;;;;;923456;154;27416;-79
2022/03/12 11:48:14;;;;;;;6.63;5.10;;;15.20;29.90;;;;;;922579;152;27409;-80
2022/03/12 11:50:40;;;;;;;5.17;4.67;;;15.20;30.00;;;;;;936556;149;27966;-79
2022/03/12 11:53:07;;;;;;;5.60;4.73;;;15.20;30.00;;;;;;935598;151;27340;-79
2022/03/12 11:55:34;;;;;;;6.30;4.37;;;15.10;30.00;;;;;;925708;151;27372;-79
2022/03/12 11:58:00;;;;;;;5.77;4.70;;;15.10;30.00;;;;;;924416;154;27283;-79
2022/03/12 12:00:28;;;;;;;6.93;4.73;;;15.00;30.10;;;;;;922929;151;27949;-79
2022/03/12 12:02:53;;;;;;;5.70;5.20;;;15.00;30.20;;;;;;934170;152;27337;-79
2022/03/12 12:05:22;;;;;;;5.63;5.13;;;15.00;30.40;;;;;;933890;152;28519;-79
2022/03/12 12:07:47;;;;;;;5.13;4.63;;;15.10;30.60;;;;;;933962;149;27390;-79
2022/03/12 12:10:13;;;;;;;5.37;4.70;;;15.10;30.50;;;;;;933963;149;27312;-79
2022/03/12 12:12:40;;;;;;;5.70;5.20;;;15.10;30.60;;;;;;933175;152;27320;-79
2022/03/12 12:15:07;;;;;;;6.30;5.70;;;15.20;30.60;;;;;;935415;151;27807;-79
2022/03/12 12:17:33;;;;;;;6.47;5.20;;;15.30;30.70;;;;;;939353;147;27355;-79
2022/03/12 12:19:59;;;;;;;5.43;4.93;;;15.40;30.60;;;;;;936680;148;27425;-79
2022/03/12 12:22:27;;;;;;;5.97;5.37;;;15.40;30.70;;;;;;941979;148;27318;-79
2022/03/12 12:24:53;;;;;;;5.80;5.07;;;15.50;30.70;;;;;;937505;148;27331;-80
2022/03/12 12:27:23;;;;;;;5.97;4.77;;;15.50;30.80;;;;;;937611;148;27326;-79
2022/03/12 12:29:54;;;;;;;5.17;4.67;;;15.60;30.80;;;;;;938635;148;27398;-79
2022/03/12 12:32:21;;;;;;;5.43;4.97;;;15.70;30.90;;;;;;938897;148;27336;-79
2022/03/12 12:35:12;;;;;;;5.85;4.40;;;15.80;31.00;;;;;;937920;148;27416;-80
2022/03/12 12:37:59;;;;;;;8.13;4.80;;;15.90;31.10;;;;;;938480;148;27351;-79
2022/03/12 12:40:36;;;;;;;4.73;4.17;;;16.00;31.20;;;;;;937111;148;27479;-78
2022/03/12 12:43:02;;;;;;;5.70;5.10;;;16.10;31.20;;;;;;938220;148;27801;-79
2022/03/12 12:45:27;;;;;;;5.80;4.60;;;16.20;31.30;;;;;;937610;148;27355;-79
2022/03/12 12:48:14;;;;;;;4.67;4.22;;;16.30;31.30;;;;;;924709;150;27310;-79
2022/03/12 12:50:38;;;;;;;5.42;4.20;;;16.40;31.40;;;;;;939280;148;27397;-80
2022/03/12 12:53:14;;;;;;;5.42;4.55;;;16.50;31.30;;;;;;937731;148;27355;-79